Time;durP1;ratioP1;P1;durP2;ratioP2;P2;SDS_P1;SDS_P2;PMS_P1;PMS_P2;Temp;Humidity;BMP_temperature;BMP_pressure;BME280_temperature;BME280_humidity;BME280_pressure;Samples;Min_cycle;Max_cycle;Signal;HPM_P1;HPM_P2
2022/06/09 00:01:53;;;;;;;2.17;1.97;;;15.40;99.90;;;;;;5006050;28;20204;-76
2022/06/09 00:04:26;;;;;;;2.20;2.00;;;15.40;99.90;;;;;;5012598;28;20209;-78
2022/06/09 00:06:59;;;;;;;2.10;2.00;;;15.40;99.90;;;;;;5013784;28;20219;-78
2022/06/09 00:09:32;;;;;;;2.10;2.00;;;15.40;99.90;;;;;;5008826;28;20238;-78
2022/06/09 00:11:59;;;;;;;2.43;2.23;;;15.40;99.90;;;;;;5014195;28;20258;-77
2022/06/09 00:14:26;;;;;;;2.00;1.90;;;15.40;99.90;;;;;;5014556;28;20212;-77
2022/06/09 00:16:53;;;;;;;2.00;1.90;;;15.40;99.90;;;;;;5012823;28;20229;-77
2022/06/09 00:19:21;;;;;;;1.73;1.70;;;15.40;99.90;;;;;;5011987;28;20197;-78
2022/06/09 00:21:52;;;;;;;2.30;2.20;;;15.40;99.90;;;;;;5016865;28;20618;-78
2022/06/09 00:24:18;;;;;;;3.70;2.10;;;15.40;99.90;;;;;;5019927;28;20208;-78
2022/06/09 00:26:46;;;;;;;1.93;1.83;;;15.40;99.90;;;;;;5007175;28;20216;-79
2022/06/09 00:29:13;;;;;;;2.27;2.17;;;15.40;99.90;;;;;;5016868;28;20565;-78
2022/06/09 00:31:43;;;;;;;2.20;2.00;;;15.40;99.90;;;;;;5008908;28;20625;-78
2022/06/09 00:34:10;;;;;;;2.10;1.90;;;15.30;99.90;;;;;;5008071;28;20210;-77
2022/06/09 00:36:39;;;;;;;2.20;2.00;;;15.30;99.90;;;;;;5006658;28;20239;-78
2022/06/09 00:39:06;;;;;;;2.00;1.90;;;15.30;99.90;;;;;;5016577;28;20572;-77
2022/06/09 00:41:39;;;;;;;2.10;2.00;;;15.30;99.90;;;;;;5018208;28;20216;-78
2022/06/09 00:44:21;;;;;;;2.70;2.03;;;15.30;99.90;;;;;;5014503;28;20685;-77
2022/06/09 00:46:54;;;;;;;2.37;2.13;;;15.30;99.90;;;;;;5016998;28;20275;-78
2022/06/09 00:49:26;;;;;;;2.77;2.43;;;15.30;99.90;;;;;;5018275;28;20201;-78
2022/06/09 00:51:58;;;;;;;3.37;2.40;;;15.30;99.90;;;;;;5004414;28;20200;-78
2022/06/09 00:54:29;;;;;;;2.20;2.03;;;15.30;99.90;;;;;;5017175;28;20296;-77
2022/06/09 00:57:02;;;;;;;2.30;2.10;;;15.20;99.90;;;;;;5017829;28;20213;-78
2022/06/09 00:59:34;;;;;;;2.57;2.37;;;15.30;99.90;;;;;;5012254;28;20217;-77
2022/06/09 01:02:06;;;;;;;2.70;2.20;;;15.30;99.90;;;;;;5017828;28;20201;-78
2022/06/09 01:04:34;;;;;;;2.27;2.13;;;15.30;99.90;;;;;;5016658;28;20234;-77
2022/06/09 01:07:09;;;;;;;2.10;2.00;;;15.20;99.90;;;;;;5014443;28;20226;-78
2022/06/09 01:09:38;;;;;;;3.03;2.10;;;15.30;99.90;;;;;;5016410;28;20196;-78
2022/06/09 01:12:23;;;;;;;2.30;2.10;;;15.20;99.90;;;;;;5016956;28;20608;-77
2022/06/09 01:14:53;;;;;;;2.20;2.10;;;15.20;99.90;;;;;;4998641;28;20562;-76
2022/06/09 01:17:29;;;;;;;2.43;1.90;;;15.20;99.90;;;;;;5012056;28;20300;-77
2022/06/09 01:20:09;;;;;;;2.07;1.97;;;15.30;99.90;;;;;;5015858;28;20220;-79
2022/06/09 01:23:00;;;;;;;3.00;2.30;;;15.20;99.90;;;;;;5016996;28;20213;-77
2022/06/09 01:25:51;;;;;;;2.60;2.30;;;15.10;99.90;;;;;;5011865;28;20203;-77
2022/06/09 01:29:00;;;;;;;2.30;2.20;;;15.10;99.90;;;;;;5018352;28;20226;-78
2022/06/09 01:31:36;;;;;;;2.23;2.07;;;15.10;99.90;;;;;;5016878;28;20200;-77
2022/06/09 01:34:16;;;;;;;2.53;2.30;;;15.10;99.90;;;;;;5016966;28;20206;-78
2022/06/09 01:36:49;;;;;;;3.17;2.53;;;15.10;99.90;;;;;;5006005;28;20234;-77
2022/06/09 01:39:16;;;;;;;2.70;2.50;;;15.10;99.90;;;;;;5029295;28;20204;-77
2022/06/09 01:41:48;;;;;;;2.23;2.13;;;15.10;99.90;;;;;;5010223;28;20312;-78
2022/06/09 01:44:17;;;;;;;2.57;2.37;;;15.10;99.90;;;;;;5002848;28;20212;-76
2022/06/09 01:46:46;;;;;;;4.90;4.70;;;15.00;99.90;;;;;;5010909;28;20276;-76
2022/06/09 01:49:19;;;;;;;3.27;2.30;;;15.00;99.90;;;;;;5015977;28;20197;-78
2022/06/09 01:51:49;;;;;;;2.60;2.40;;;14.90;99.90;;;;;;5014192;28;20653;-76
2022/06/09 01:54:20;;;;;;;5.10;4.80;;;14.90;99.90;;;;;;5009799;28;20211;-77
2022/06/09 01:56:52;;;;;;;3.50;3.20;;;14.80;99.90;;;;;;5013984;28;20315;-77
2022/06/09 01:59:23;;;;;;;4.47;4.23;;;14.80;99.90;;;;;;5015724;28;20204;-78
2022/06/09 02:01:58;;;;;;;2.73;2.53;;;14.80;99.90;;;;;;5015251;28;20221;-77
2022/06/09 02:04:32;;;;;;;2.53;2.43;;;14.90;99.90;;;;;;5005189;28;20208;-78
2022/06/09 02:07:02;;;;;;;3.60;2.43;;;14.80;99.90;;;;;;5016877;28;20254;-78
2022/06/09 02:09:32;;;;;;;2.30;2.20;;;14.80;99.90;;;;;;5014271;28;20211;-77
2022/06/09 02:12:04;;;;;;;2.80;2.60;;;14.80;99.90;;;;;;5015716;28;20377;-78
2022/06/09 02:14:34;;;;;;;2.50;2.40;;;14.80;99.90;;;;;;5007155;28;20205;-77
2022/06/09 02:17:06;;;;;;;2.70;2.50;;;14.80;99.90;;;;;;5008177;28;20228;-77
2022/06/09 02:19:34;;;;;;;3.13;2.60;;;14.80;99.90;;;;;;5006473;28;20297;-78
2022/06/09 02:22:01;;;;;;;3.30;2.70;;;14.70;99.90;;;;;;5008818;28;20255;-78
2022/06/09 02:24:28;;;;;;;2.50;2.30;;;14.70;99.90;;;;;;5003214;28;20295;-77
2022/06/09 02:26:54;;;;;;;2.60;2.40;;;14.70;99.90;;;;;;5007140;28;20664;-77
2022/06/09 02:29:21;;;;;;;2.60;2.40;;;14.70;99.90;;;;;;5013723;28;20201;-76
2022/06/09 02:31:48;;;;;;;2.40;2.30;;;14.70;99.90;;;;;;5013781;28;20199;-78
2022/06/09 02:34:17;;;;;;;2.50;2.30;;;14.60;99.90;;;;;;5005451;28;20259;-76
2022/06/09 02:36:44;;;;;;;2.67;2.47;;;14.60;99.90;;;;;;5009070;28;20733;-77
2022/06/09 02:39:11;;;;;;;2.73;2.50;;;14.60;99.90;;;;;;5011361;28;20196;-78
2022/06/09 02:41:38;;;;;;;2.40;2.30;;;14.60;99.90;;;;;;5013672;28;20209;-79
2022/06/09 02:44:05;;;;;;;2.60;2.40;;;14.60;99.90;;;;;;5011326;28;20627;-79
2022/06/09 02:46:32;;;;;;;2.60;2.40;;;14.60;99.90;;;;;;5012584;28;20197;-78
2022/06/09 02:48:59;;;;;;;2.57;2.47;;;14.60;99.90;;;;;;5008930;28;20246;-77
2022/06/09 02:51:29;;;;;;;3.70;3.50;;;14.60;99.90;;;;;;5008648;28;20619;-78
2022/06/09 02:53:57;;;;;;;4.30;4.00;;;14.60;99.90;;;;;;5014920;28;20192;-81
2022/06/09 02:56:25;;;;;;;6.77;6.37;;;14.50;99.90;;;;;;5012529;28;20255;-80
2022/06/09 02:58:52;;;;;;;2.20;2.10;;;14.50;99.90;;;;;;5009425;28;20201;-80
2022/06/09 03:01:20;;;;;;;2.30;2.20;;;14.40;99.90;;;;;;5013289;28;20275;-81
2022/06/09 03:03:47;;;;;;;2.40;2.30;;;14.40;99.90;;;;;;5012042;28;20205;-80
2022/06/09 03:06:14;;;;;;;2.20;2.10;;;14.40;99.90;;;;;;5012290;28;20208;-80
2022/06/09 03:08:42;;;;;;;2.30;2.20;;;14.30;99.90;;;;;;5010460;28;20235;-82
2022/06/09 03:11:12;;;;;;;2.40;2.30;;;14.30;99.90;;;;;;5003895;28;20260;-80
2022/06/09 03:13:40;;;;;;;2.30;2.20;;;14.30;99.90;;;;;;5022919;28;20585;-79
2022/06/09 03:16:08;;;;;;;2.40;2.30;;;14.30;99.90;;;;;;5008768;28;20216;-80
2022/06/09 03:18:36;;;;;;;2.60;2.50;;;14.30;99.90;;;;;;5012824;28;20216;-82
2022/06/09 03:21:05;;;;;;;2.40;2.30;;;14.20;99.90;;;;;;5012053;28;20220;-81
2022/06/09 03:23:32;;;;;;;3.73;3.53;;;14.20;99.90;;;;;;5011652;28;20644;-80
2022/06/09 03:26:00;;;;;;;2.43;2.33;;;14.20;99.90;;;;;;5004251;28;20290;-80
2022/06/09 03:28:28;;;;;;;2.60;2.40;;;14.20;99.90;;;;;;5002505;28;20235;-80
2022/06/09 03:31:37;;;;;;;2.30;2.20;;;14.20;99.90;;;;;;5008519;28;20658;-80
2022/06/09 03:34:18;;;;;;;2.60;2.40;;;14.10;99.90;;;;;;5008771;28;20288;-81
2022/06/09 04:52:58;;;;;;;3.00;2.80;;;14.10;99.90;;;;;;4846803;29;20197;-80
2022/06/09 05:18:29;;;;;;;4.83;4.40;;;14.40;99.90;;;;;;775289;23;20514;-78
2022/06/09 05:20:58;;;;;;;2.93;2.80;;;14.50;99.90;;;;;;4984554;28;20221;-76
2022/06/09 05:23:25;;;;;;;3.20;2.90;;;14.50;99.90;;;;;;5003866;28;20535;-78
2022/06/09 05:25:54;;;;;;;3.10;2.90;;;14.60;99.90;;;;;;4983728;28;20227;-77
2022/06/09 05:28:22;;;;;;;3.40;3.07;;;14.80;99.90;;;;;;5005629;28;20280;-77
2022/06/09 05:30:49;;;;;;;6.13;5.73;;;14.90;99.90;;;;;;4987720;28;20200;-77
2022/06/09 05:33:16;;;;;;;8.40;7.90;;;15.00;99.90;;;;;;4999309;28;20659;-78
2022/06/09 05:35:44;;;;;;;8.77;8.23;;;15.20;99.90;;;;;;4985193;28;20193;-76
2022/06/09 05:46:25;;;;;;;3.77;2.90;;;15.90;99.90;;;;;;4987228;28;20646;-79
2022/06/09 05:48:52;;;;;;;6.63;6.23;;;16.00;99.90;;;;;;5003484;28;20225;-79
2022/06/09 05:51:20;;;;;;;3.67;3.30;;;16.10;99.90;;;;;;4988357;28;20205;-79
2022/06/09 05:53:48;;;;;;;5.87;5.37;;;16.50;99.90;;;;;;4998986;28;20219;-79
2022/06/09 05:56:16;;;;;;;5.40;5.00;;;16.70;99.90;;;;;;4988750;28;20668;-79
2022/06/09 05:58:43;;;;;;;5.17;4.70;;;17.20;99.90;;;;;;4990329;28;20248;-81
2022/06/09 06:01:12;;;;;;;4.90;4.53;;;17.90;99.90;;;;;;4988915;28;20213;-80
2022/06/09 06:15:02;;;;;;;4.20;4.00;;;19.00;99.90;;;;;;4855835;29;20213;-80
2022/06/09 06:18:02;;;;;;;6.33;5.10;;;19.50;99.90;;;;;;4879419;28;20221;-78
2022/06/09 06:23:37;;;;;;;4.00;3.70;;;19.10;99.90;;;;;;4974606;28;20207;-79
2022/06/09 06:26:07;;;;;;;4.70;4.30;;;18.90;99.90;;;;;;4954911;28;20266;-78
2022/06/09 06:28:36;;;;;;;4.43;4.03;;;19.00;99.90;;;;;;4949211;28;20217;-79
2022/06/09 06:31:09;;;;;;;4.37;4.00;;;19.20;99.90;;;;;;4950828;28;20232;-79
2022/06/09 06:33:46;;;;;;;3.53;3.23;;;19.30;99.90;;;;;;4954483;29;20324;-79
2022/06/09 06:36:20;;;;;;;6.40;5.90;;;19.20;99.90;;;;;;4971872;28;20237;-78
2022/06/09 06:38:49;;;;;;;4.10;3.80;;;19.20;99.90;;;;;;4962003;28;20236;-78
2022/06/09 06:41:20;;;;;;;6.50;5.90;;;19.10;99.90;;;;;;4961723;28;20209;-79
2022/06/09 06:43:49;;;;;;;7.97;7.33;;;19.10;99.90;;;;;;4965015;28;20205;-78
2022/06/09 06:46:17;;;;;;;6.27;4.53;;;19.00;99.90;;;;;;4975083;28;20205;-79
2022/06/09 06:48:47;;;;;;;4.00;3.70;;;18.70;99.90;;;;;;4950651;28;20693;-79
2022/06/09 06:51:14;;;;;;;3.33;2.80;;;18.70;99.90;;;;;;4958349;28;20709;-78
2022/06/09 06:53:43;;;;;;;4.80;4.30;;;19.00;99.90;;;;;;4956488;28;20292;-78
2022/06/09 06:56:11;;;;;;;4.13;3.83;;;19.40;99.90;;;;;;4961414;28;20223;-78
2022/06/09 06:58:38;;;;;;;5.30;4.90;;;20.30;99.90;;;;;;4995268;28;20690;-79
2022/06/09 07:01:06;;;;;;;7.63;6.93;;;21.20;99.90;;;;;;4979679;28;20205;-79
2022/06/09 07:03:37;;;;;;;6.67;6.20;;;21.80;99.90;;;;;;4992600;28;20229;-78
2022/06/09 07:06:08;;;;;;;8.10;7.60;;;22.30;99.90;;;;;;4958077;28;20822;-79
2022/06/09 07:08:36;;;;;;;9.23;8.60;;;22.70;99.90;;;;;;4982700;28;20233;-78
2022/06/09 07:11:02;;;;;;;4.47;4.17;;;23.20;99.90;;;;;;4959227;28;20278;-75
2022/06/09 07:13:29;;;;;;;3.63;3.33;;;22.60;99.90;;;;;;4972309;28;20197;-80
2022/06/09 07:15:56;;;;;;;4.13;3.80;;;22.60;99.90;;;;;;4977057;28;20226;-81
2022/06/09 07:18:23;;;;;;;4.57;3.67;;;22.00;99.90;;;;;;4977573;28;20635;-80
2022/06/09 07:20:50;;;;;;;7.50;6.97;;;21.90;99.90;;;;;;4945970;29;20500;-79
2022/06/09 07:23:18;;;;;;;8.27;7.70;;;22.10;99.90;;;;;;4949466;28;20222;-79
2022/06/09 07:25:45;;;;;;;7.73;7.13;;;22.40;99.90;;;;;;4979181;28;20198;-78
2022/06/09 07:28:12;;;;;;;3.33;3.03;;;22.60;99.90;;;;;;4973318;28;20218;-80
2022/06/09 07:30:39;;;;;;;6.20;5.70;;;22.30;99.90;;;;;;4980958;28;20229;-79
2022/06/09 07:33:06;;;;;;;7.77;7.10;;;21.90;99.90;;;;;;4951334;28;20644;-79
2022/06/09 07:35:35;;;;;;;7.00;6.30;;;22.40;99.90;;;;;;4982424;28;20197;-79
2022/06/09 07:38:04;;;;;;;4.10;3.37;;;22.70;99.90;;;;;;4964429;28;20282;-78
2022/06/09 07:40:33;;;;;;;5.97;5.13;;;22.40;99.90;;;;;;4965650;28;20271;-77
2022/06/09 07:43:01;;;;;;;5.07;4.70;;;22.40;99.90;;;;;;4967871;28;20218;-77
2022/06/09 07:45:28;;;;;;;4.70;4.33;;;22.50;99.90;;;;;;4970503;28;20213;-76
2022/06/09 07:47:55;;;;;;;5.30;4.80;;;22.40;99.90;;;;;;4973128;28;20762;-78
2022/06/09 07:50:23;;;;;;;6.87;3.40;;;22.80;99.90;;;;;;4974193;28;20204;-78
2022/06/09 07:52:50;;;;;;;4.13;3.40;;;22.40;99.90;;;;;;4948332;28;20201;-78
2022/06/09 07:55:17;;;;;;;3.17;2.30;;;22.30;99.90;;;;;;4965634;28;20194;-77
2022/06/09 07:57:45;;;;;;;6.90;5.30;;;22.70;99.90;;;;;;4967530;28;20229;-76
2022/06/09 08:00:14;;;;;;;6.63;6.00;;;22.70;99.90;;;;;;4966301;28;20191;-77
2022/06/09 08:02:42;;;;;;;3.33;3.10;;;22.70;99.90;;;;;;4970006;28;20245;-78
2022/06/09 08:05:10;;;;;;;7.13;6.53;;;23.10;99.90;;;;;;4970360;28;20229;-77
2022/06/09 08:07:38;;;;;;;7.43;6.73;;;23.40;99.90;;;;;;4973025;28;20591;-77
2022/06/09 08:10:07;;;;;;;5.47;5.00;;;23.40;99.90;;;;;;4981072;28;20225;-79
2022/06/09 08:12:34;;;;;;;3.97;2.97;;;23.60;99.90;;;;;;4957883;28;20693;-77
2022/06/09 08:15:04;;;;;;;7.03;6.43;;;23.90;99.90;;;;;;4949593;28;20731;-78
2022/06/09 08:17:31;;;;;;;5.10;2.87;;;23.50;99.90;;;;;;4965471;28;20305;-78
2022/06/09 08:19:58;;;;;;;5.23;3.93;;;23.00;99.90;;;;;;4948803;28;20194;-77
2022/06/09 08:22:25;;;;;;;5.67;2.40;;;22.80;99.90;;;;;;4971823;28;20242;-77
2022/06/09 08:24:51;;;;;;;2.50;2.00;;;23.30;99.90;;;;;;4969370;28;20210;-78
2022/06/09 08:27:18;;;;;;;5.10;2.03;;;23.80;99.90;;;;;;4970126;28;20579;-77
2022/06/09 08:29:45;;;;;;;3.90;2.63;;;24.00;99.90;;;;;;4969996;28;20250;-76
2022/06/09 08:32:14;;;;;;;7.50;6.87;;;24.40;99.90;;;;;;4980398;28;20198;-77
2022/06/09 08:34:40;;;;;;;4.80;2.10;;;24.60;99.90;;;;;;4965665;28;20285;-78
2022/06/09 08:37:07;;;;;;;4.40;4.10;;;24.60;99.90;;;;;;4966625;28;20274;-77
2022/06/09 08:39:34;;;;;;;4.80;2.27;;;24.90;99.90;;;;;;4970102;28;20667;-78
2022/06/09 08:42:20;;;;;;;6.37;3.70;;;24.80;99.90;;;;;;4969191;28;20281;-77
2022/06/09 08:44:52;;;;;;;4.83;3.93;;;24.40;99.90;;;;;;4969930;28;20256;-78
2022/06/09 08:47:25;;;;;;;5.50;3.20;;;24.40;99.90;;;;;;4959774;28;20288;-77
2022/06/09 08:50:04;;;;;;;4.37;2.20;;;24.80;99.90;;;;;;4964548;28;20197;-77
2022/06/09 08:52:45;;;;;;;2.30;2.10;;;25.30;99.90;;;;;;4980639;28;20206;-77
2022/06/09 08:55:22;;;;;;;3.90;2.50;;;25.60;99.90;;;;;;4963043;28;20202;-78
2022/06/09 08:57:51;;;;;;;2.03;1.83;;;26.00;99.90;;;;;;4970398;28;20711;-78
2022/06/09 09:00:21;;;;;;;4.03;3.63;;;26.20;99.90;;;;;;4968887;28;20199;-78
2022/06/09 09:02:57;;;;;;;3.73;3.37;;;26.10;99.90;;;;;;4967294;28;20676;-79
2022/06/09 09:05:29;;;;;;;5.40;4.90;;;25.80;99.90;;;;;;4974495;28;20198;-78
2022/06/09 09:08:00;;;;;;;5.80;5.30;;;25.10;99.90;;;;;;4968809;28;20721;-77
2022/06/09 09:10:32;;;;;;;5.47;4.97;;;24.90;99.90;;;;;;4972625;28;20782;-77
2022/06/09 09:13:13;;;;;;;4.70;4.30;;;25.40;99.90;;;;;;4957730;29;20191;-77
2022/06/09 09:15:45;;;;;;;5.30;4.90;;;25.70;99.90;;;;;;4942464;29;20254;-77
2022/06/09 09:18:24;;;;;;;7.13;6.47;;;25.90;99.90;;;;;;4972897;28;20278;-78
2022/06/09 09:21:00;;;;;;;7.20;6.57;;;26.40;99.90;;;;;;4952405;28;20613;-78
2022/06/09 09:23:35;;;;;;;5.63;5.23;;;26.60;99.90;;;;;;4983454;28;20217;-77
2022/06/09 09:26:10;;;;;;;6.07;5.57;;;26.20;99.90;;;;;;4968601;28;20265;-77
2022/06/09 09:28:48;;;;;;;6.47;5.87;;;25.30;99.90;;;;;;4968931;28;20211;-77
2022/06/09 09:31:24;;;;;;;7.97;7.43;;;24.90;99.90;;;;;;4954062;28;20202;-77
2022/06/09 09:33:52;;;;;;;5.00;4.60;;;25.20;99.90;;;;;;4966773;28;20266;-77
2022/06/09 09:36:23;;;;;;;3.00;2.70;;;24.70;99.90;;;;;;4967817;28;20252;-78
2022/06/09 09:38:54;;;;;;;6.13;5.73;;;24.30;99.90;;;;;;4967859;28;20202;-77
2022/06/09 09:41:33;;;;;;;6.17;5.67;;;23.90;99.90;;;;;;4978871;28;20556;-76
2022/06/09 09:44:00;;;;;;;5.13;4.73;;;23.60;99.90;;;;;;4977019;28;20313;-79
2022/06/09 09:46:31;;;;;;;5.20;3.03;;;23.30;99.90;;;;;;4967429;28;20253;-78
2022/06/09 09:49:15;;;;;;;6.53;3.27;;;23.40;99.90;;;;;;4968241;28;20205;-78
2022/06/09 09:51:43;;;;;;;4.90;4.53;;;23.40;99.90;;;;;;4967857;28;20194;-78
2022/06/09 09:54:20;;;;;;;2.77;2.57;;;23.40;99.90;;;;;;4950008;29;20198;-77
2022/06/09 09:56:47;;;;;;;2.87;1.77;;;23.30;99.90;;;;;;4974813;28;20256;-79
2022/06/09 09:59:24;;;;;;;2.10;1.73;;;23.50;99.90;;;;;;4964608;28;20751;-79
2022/06/09 10:10:26;;;;;;;3.07;1.70;;;23.90;99.90;;;;;;4978344;28;20296;-79
2022/06/09 10:12:54;;;;;;;2.53;1.90;;;24.40;99.90;;;;;;4977993;28;20194;-79
2022/06/09 10:15:23;;;;;;;3.07;2.10;;;25.00;99.90;;;;;;4944641;28;20266;-79
2022/06/09 10:17:58;;;;;;;2.93;2.00;;;24.60;99.90;;;;;;4971138;28;20226;-78
2022/06/09 10:20:36;;;;;;;2.93;2.53;;;24.60;99.90;;;;;;4967427;28;20200;-79
2022/06/09 10:23:25;;;;;;;3.37;3.03;;;24.10;99.90;;;;;;4967229;28;20269;-80
2022/06/09 10:25:58;;;;;;;3.43;2.03;;;23.20;99.90;;;;;;4966246;28;20246;-80
2022/06/09 10:28:34;;;;;;;4.23;2.77;;;22.90;99.90;;;;;;4975819;28;20269;-79
2022/06/09 10:31:06;;;;;;;3.20;3.00;;;22.60;99.90;;;;;;4978247;28;20691;-78
2022/06/09 10:33:38;;;;;;;3.37;1.87;;;22.40;99.90;;;;;;4972589;28;20185;-79
2022/06/09 10:36:15;;;;;;;4.40;2.47;;;22.40;99.90;;;;;;4981496;28;20224;-78
2022/06/09 10:38:47;;;;;;;6.03;5.60;;;22.50;99.90;;;;;;4977354;28;20781;-79
2022/06/09 10:41:17;;;;;;;3.47;3.27;;;22.50;99.90;;;;;;4975436;28;20209;-79
2022/06/09 10:43:50;;;;;;;3.67;3.37;;;22.20;99.90;;;;;;4971407;28;20245;-79
2022/06/09 10:46:29;;;;;;;3.73;2.63;;;21.90;99.90;;;;;;4969555;28;20266;-79
2022/06/09 10:57:32;;;;;;;2.83;2.10;;;23.40;99.90;;;;;;4977022;28;20276;-78
2022/06/09 11:00:05;;;;;;;3.43;1.90;;;24.20;99.90;;;;;;4953194;29;20579;-79
2022/06/09 11:02:34;;;;;;;2.47;2.10;;;24.30;99.90;;;;;;4975567;28;20336;-79
2022/06/09 11:05:01;;;;;;;2.50;1.93;;;24.00;99.90;;;;;;4959178;28;20744;-79
2022/06/09 11:07:51;;;;;;;3.40;1.60;;;23.50;99.90;;;;;;4968763;28;20222;-79
2022/06/09 11:10:26;;;;;;;4.57;2.20;;;23.80;99.90;;;;;;4962455;28;20206;-78
2022/06/09 11:13:17;;;;;;;2.67;1.83;;;24.10;99.90;;;;;;4971980;28;20247;-77
2022/06/09 11:15:52;;;;;;;6.07;5.57;;;24.40;99.60;;;;;;4969972;28;20198;-77
2022/06/09 11:18:29;;;;;;;3.10;2.80;;;24.30;99.90;;;;;;4977531;28;20269;-79
2022/06/09 11:21:05;;;;;;;2.77;1.50;;;23.90;99.30;;;;;;4969283;28;20277;-77
2022/06/09 11:23:53;;;;;;;4.50;4.10;;;23.60;99.90;;;;;;4969910;28;20220;-79
2022/06/09 11:26:30;;;;;;;5.73;4.73;;;23.50;99.90;;;;;;4974886;28;20198;-77
2022/06/09 11:29:06;;;;;;;3.33;1.90;;;23.30;99.90;;;;;;4972356;28;20746;-79
2022/06/09 11:31:45;;;;;;;2.63;1.77;;;23.40;99.60;;;;;;4967260;28;20726;-78
2022/06/09 11:34:25;;;;;;;2.67;1.87;;;23.60;99.80;;;;;;4967594;28;20577;-78
2022/06/09 11:37:00;;;;;;;3.07;1.70;;;23.90;99.20;;;;;;4953395;28;20246;-77
2022/06/09 11:39:50;;;;;;;1.97;1.60;;;24.10;98.10;;;;;;4968256;28;20670;-77
2022/06/09 11:42:29;;;;;;;5.03;2.00;;;23.80;99.90;;;;;;4968431;28;20258;-77
2022/06/09 11:44:58;;;;;;;6.50;4.60;;;23.30;99.90;;;;;;4969598;28;20715;-77
2022/06/09 11:47:28;;;;;;;5.20;3.03;;;22.80;99.90;;;;;;4974790;28;20229;-77
2022/06/09 11:49:58;;;;;;;5.53;3.27;;;22.00;99.90;;;;;;4976288;28;20471;-77
2022/06/09 11:52:29;;;;;;;4.50;2.10;;;21.30;99.90;;;;;;4967585;28;20269;-76
2022/06/09 11:55:04;;;;;;;3.63;3.23;;;20.60;99.90;;;;;;4969738;28;20203;-76
2022/06/09 11:57:47;;;;;;;4.07;3.10;;;20.40;99.90;;;;;;4972297;28;20422;-78
2022/06/09 12:00:39;;;;;;;4.77;2.30;;;20.30;99.90;;;;;;4962463;28;20214;-77
2022/06/09 12:03:31;;;;;;;5.03;2.10;;;20.10;99.90;;;;;;4960101;28;20254;-77
2022/06/09 12:06:01;;;;;;;5.23;2.00;;;20.50;99.90;;;;;;4958534;28;20202;-78
2022/06/09 12:08:40;;;;;;;2.20;1.80;;;21.00;99.90;;;;;;4973083;28;20305;-78
2022/06/09 12:11:17;;;;;;;2.10;1.90;;;21.50;99.90;;;;;;4954951;28;20209;-77
2022/06/09 12:13:58;;;;;;;7.43;6.90;;;22.10;99.90;;;;;;4974983;28;20200;-78
2022/06/09 12:16:29;;;;;;;5.13;2.20;;;22.10;99.90;;;;;;4968482;28;20201;-77
2022/06/09 12:19:05;;;;;;;3.87;3.47;;;22.00;99.90;;;;;;4985306;28;20253;-77
2022/06/09 12:21:35;;;;;;;3.20;2.10;;;22.20;99.90;;;;;;4964283;28;20623;-78
2022/06/09 12:24:36;;;;;;;3.43;1.80;;;22.40;99.90;;;;;;4974546;28;20229;-79
2022/06/09 12:27:38;;;;;;;2.90;2.23;;;22.60;99.90;;;;;;4979976;28;20221;-79
2022/06/09 12:30:30;;;;;;;6.87;6.27;;;22.80;99.90;;;;;;4996021;28;20621;-79
2022/06/09 12:33:27;;;;;;;5.60;5.20;;;22.90;99.90;;;;;;4991988;28;20193;-80
2022/06/09 12:36:02;;;;;;;3.70;2.13;;;22.70;99.90;;;;;;4996193;28;20220;-79
2022/06/09 12:38:33;;;;;;;3.03;1.83;;;22.40;99.90;;;;;;4973798;28;20224;-79
2022/06/09 12:41:03;;;;;;;3.10;2.87;;;22.20;99.90;;;;;;4992166;28;20193;-78
2022/06/09 12:43:34;;;;;;;4.60;1.77;;;22.20;99.90;;;;;;4986752;28;20206;-78
2022/06/09 12:46:07;;;;;;;2.40;1.70;;;22.20;99.90;;;;;;4957857;28;20719;-77
2022/06/09 12:48:35;;;;;;;4.37;1.90;;;22.20;99.90;;;;;;4970380;28;20217;-77
2022/06/09 12:51:08;;;;;;;3.70;2.27;;;22.10;99.90;;;;;;4970715;28;20900;-77
2022/06/09 12:53:38;;;;;;;1.93;1.73;;;22.00;99.90;;;;;;4970965;28;20198;-77
2022/06/09 12:56:18;;;;;;;2.43;1.93;;;22.00;99.90;;;;;;4970826;28;20257;-78
2022/06/09 12:58:47;;;;;;;2.43;1.83;;;21.90;99.90;;;;;;4971208;28;20502;-78
2022/06/09 13:01:19;;;;;;;3.70;2.00;;;21.90;99.90;;;;;;4979465;28;20205;-78
2022/06/09 13:03:49;;;;;;;4.87;2.00;;;22.00;99.90;;;;;;4970040;28;20218;-78
2022/06/09 13:06:23;;;;;;;2.23;2.13;;;22.30;99.90;;;;;;4969560;28;20206;-78
2022/06/09 13:08:51;;;;;;;5.63;5.13;;;22.40;99.90;;;;;;4966125;28;20246;-77
2022/06/09 13:12:50;;;;;;;3.27;2.03;;;22.50;99.90;;;;;;4979762;28;20584;-78
2022/06/09 13:14:09;;;;;;;2.93;2.10;;;22.40;99.90;;;;;;4971651;28;20250;-80
2022/06/09 13:16:44;;;;;;;3.30;2.30;;;22.00;99.90;;;;;;4969524;28;20198;-78
2022/06/09 13:19:12;;;;;;;5.50;2.37;;;21.60;99.90;;;;;;4960076;28;20201;-78
2022/06/09 13:21:42;;;;;;;4.20;2.33;;;21.20;99.90;;;;;;4959357;28;20260;-78
2022/06/09 13:24:15;;;;;;;4.03;2.23;;;20.70;99.90;;;;;;4969423;28;20694;-78
2022/06/09 13:26:45;;;;;;;6.50;5.93;;;20.60;99.90;;;;;;4977944;28;20782;-78
2022/06/09 13:29:18;;;;;;;3.53;3.33;;;20.50;99.90;;;;;;4961105;28;20198;-79
2022/06/09 13:31:47;;;;;;;6.33;5.83;;;20.50;99.90;;;;;;4970394;28;20186;-79
2022/06/09 13:34:25;;;;;;;2.63;2.07;;;20.40;99.90;;;;;;4984416;28;20262;-77
2022/06/09 13:37:13;;;;;;;3.10;2.03;;;20.50;99.90;;;;;;4969800;28;20565;-79
2022/06/09 13:39:49;;;;;;;6.20;5.70;;;20.40;99.90;;;;;;4969754;28;20209;-77
2022/06/09 13:42:24;;;;;;;3.80;2.27;;;20.30;99.90;;;;;;4975969;28;20662;-80
2022/06/09 13:45:12;;;;;;;3.00;2.70;;;20.30;99.90;;;;;;4969695;28;20225;-79
2022/06/09 13:47:44;;;;;;;6.90;6.40;;;20.30;99.90;;;;;;4965051;28;20282;-80
2022/06/09 13:50:21;;;;;;;2.90;2.23;;;20.60;99.90;;;;;;4961787;28;20202;-78
2022/06/09 13:52:51;;;;;;;2.03;1.80;;;20.60;99.90;;;;;;4968015;28;20244;-80
2022/06/09 13:55:21;;;;;;;2.10;1.90;;;20.70;99.90;;;;;;4971526;28;20207;-80
2022/06/09 13:57:53;;;;;;;4.63;2.20;;;20.60;99.90;;;;;;4946097;28;20230;-78
2022/06/09 14:00:24;;;;;;;3.00;2.73;;;20.60;99.90;;;;;;4956281;28;20277;-78
2022/06/09 14:03:02;;;;;;;2.70;2.27;;;20.60;99.90;;;;;;4966095;28;20245;-78
2022/06/09 14:05:30;;;;;;;3.07;2.20;;;20.30;99.90;;;;;;4949477;28;20206;-78
2022/06/09 14:07:58;;;;;;;2.57;2.03;;;20.10;99.90;;;;;;4951401;28;20259;-78
2022/06/09 14:10:27;;;;;;;6.90;6.23;;;19.90;99.90;;;;;;4978681;28;20236;-80
2022/06/09 14:12:54;;;;;;;7.27;6.63;;;19.80;99.90;;;;;;4957344;28;20288;-77
2022/06/09 14:15:23;;;;;;;3.93;2.20;;;19.50;99.90;;;;;;4986479;28;20190;-78
2022/06/09 14:17:52;;;;;;;3.40;2.00;;;19.40;99.90;;;;;;4974253;28;20225;-77
2022/06/09 14:20:24;;;;;;;3.17;2.20;;;19.50;99.90;;;;;;4979164;28;20228;-77
2022/06/09 14:22:51;;;;;;;4.13;2.20;;;19.60;99.90;;;;;;4961514;28;20255;-77
2022/06/09 14:25:18;;;;;;;4.83;2.30;;;19.60;99.90;;;;;;4971963;28;20257;-78
2022/06/09 14:27:50;;;;;;;4.70;2.00;;;19.70;99.90;;;;;;4971507;28;20594;-78
2022/06/09 14:30:21;;;;;;;3.87;2.37;;;19.70;99.90;;;;;;4963628;28;20208;-77
2022/06/09 14:32:48;;;;;;;3.93;2.20;;;19.70;99.90;;;;;;4947006;29;20615;-77
2022/06/09 14:35:18;;;;;;;4.50;2.10;;;19.50;99.90;;;;;;4943155;28;20297;-77
2022/06/09 14:37:48;;;;;;;8.00;3.67;;;19.10;99.90;;;;;;4963887;28;20297;-78
2022/06/09 14:40:24;;;;;;;3.70;3.40;;;18.80;99.90;;;;;;4967241;28;20205;-78
2022/06/09 14:42:50;;;;;;;3.80;3.47;;;18.60;99.90;;;;;;4970060;28;20254;-78
2022/06/09 14:45:18;;;;;;;7.70;7.10;;;18.40;99.90;;;;;;4971124;28;20342;-77
2022/06/09 14:47:44;;;;;;;7.10;6.40;;;18.30;99.90;;;;;;4978804;28;20210;-77
2022/06/09 14:50:15;;;;;;;7.73;7.13;;;18.30;99.90;;;;;;4952345;28;20632;-79
2022/06/09 14:52:42;;;;;;;2.77;2.50;;;18.20;99.90;;;;;;4983942;28;20564;-76
2022/06/09 14:55:11;;;;;;;3.00;2.17;;;18.30;99.90;;;;;;4988865;28;20244;-78
2022/06/09 14:57:38;;;;;;;4.47;2.30;;;18.30;99.90;;;;;;4989349;28;20223;-78
2022/06/09 15:00:09;;;;;;;2.97;2.00;;;18.50;99.90;;;;;;4990265;28;20251;-77
2022/06/09 15:02:35;;;;;;;1.83;1.73;;;18.50;99.90;;;;;;4986516;28;20250;-78
2022/06/09 15:05:06;;;;;;;2.70;1.80;;;18.60;99.90;;;;;;4970045;28;20228;-80
2022/06/09 15:07:36;;;;;;;2.00;1.83;;;18.60;99.90;;;;;;4973020;23;20447;-81
2022/06/09 15:10:04;;;;;;;2.30;1.90;;;18.60;99.90;;;;;;4971795;28;20190;-80
2022/06/09 15:12:32;;;;;;;2.20;2.00;;;18.60;99.90;;;;;;4942584;29;20196;-79
2022/06/09 15:15:07;;;;;;;1.80;1.70;;;18.60;99.90;;;;;;4965137;28;20578;-81
2022/06/09 15:17:33;;;;;;;2.60;1.90;;;18.60;99.90;;;;;;4954156;28;20232;-78
2022/06/09 15:20:00;;;;;;;3.20;1.93;;;18.50;99.90;;;;;;4971142;28;20233;-80
2022/06/09 15:22:27;;;;;;;4.00;2.10;;;18.60;99.90;;;;;;4961813;28;20229;-77
2022/06/09 15:24:54;;;;;;;1.93;1.70;;;18.60;99.90;;;;;;4970787;28;20281;-76
2022/06/09 15:27:21;;;;;;;3.23;2.23;;;18.70;99.90;;;;;;4943050;29;20227;-76
2022/06/09 15:29:49;;;;;;;2.27;1.80;;;18.70;99.90;;;;;;4954581;28;20202;-76
2022/06/09 15:32:15;;;;;;;2.07;1.77;;;18.80;99.90;;;;;;4967059;28;20268;-77